sensor_id;sensor_type;location;lat;lon;timestamp;pressure;altitude;pressure_sealevel;temperature;humidity
61963;BME280;47927;42.646;23.096;2023-07-24T00:01:27;92478.75;;;18.86;56.53
61963;BME280;47927;42.646;23.096;2023-07-24T00:03:53;92483.59;;;18.88;56.35
61963;BME280;47927;42.646;23.096;2023-07-24T00:06:20;92480.84;;;18.95;56.05
61963;BME280;47927;42.646;23.096;2023-07-24T00:08:45;92473.53;;;19.03;56.07
61963;BME280;47927;42.646;23.096;2023-07-24T00:11:11;92471.53;;;19.10;56.05
61963;BME280;47927;42.646;23.096;2023-07-24T00:13:36;92472.94;;;19.15;55.86
61963;BME280;47927;42.646;23.096;2023-07-24T00:16:07;92467.66;;;19.15;55.80
61963;BME280;47927;42.646;23.096;2023-07-24T00:18:32;92467.38;;;19.09;56.06
61963;BME280;47927;42.646;23.096;2023-07-24T00:20:58;92470.03;;;19.09;55.89
61963;BME280;47927;42.646;23.096;2023-07-24T00:23:23;92470.22;;;18.99;56.12
61963;BME280;47927;42.646;23.096;2023-07-24T00:25:49;92465.91;;;19.08;55.83
61963;BME280;47927;42.646;23.096;2023-07-24T00:28:14;92472.19;;;19.15;55.51
61963;BME280;47927;42.646;23.096;2023-07-24T00:30:40;92474.03;;;19.18;55.54
61963;BME280;47927;42.646;23.096;2023-07-24T00:33:05;92473.22;;;19.21;55.61
61963;BME280;47927;42.646;23.096;2023-07-24T00:35:31;92466.47;;;19.20;55.88
61963;BME280;47927;42.646;23.096;2023-07-24T00:37:56;92460.00;;;19.21;56.39
61963;BME280;47927;42.646;23.096;2023-07-24T00:40:22;92458.38;;;19.27;56.26
61963;BME280;47927;42.646;23.096;2023-07-24T00:42:48;92459.13;;;19.27;55.98
61963;BME280;47927;42.646;23.096;2023-07-24T00:45:14;92461.44;;;19.25;56.08
61963;BME280;47927;42.646;23.096;2023-07-24T00:47:41;92463.56;;;19.34;55.39
61963;BME280;47927;42.646;23.096;2023-07-24T00:50:07;92457.47;;;19.37;55.13
61963;BME280;47927;42.646;23.096;2023-07-24T00:52:33;92465.03;;;19.35;55.36
61963;BME280;47927;42.646;23.096;2023-07-24T00:54:59;92469.97;;;19.33;55.69
61963;BME280;47927;42.646;23.096;2023-07-24T00:57:25;92449.53;;;19.17;55.50
61963;BME280;47927;42.646;23.096;2023-07-24T00:59:51;92464.69;;;19.33;55.34
61963;BME280;47927;42.646;23.096;2023-07-24T01:02:16;92451.09;;;19.34;55.41
61963;BME280;47927;42.646;23.096;2023-07-24T01:04:42;92446.19;;;19.33;55.37
61963;BME280;47927;42.646;23.096;2023-07-24T01:07:08;92443.63;;;19.29;55.63
61963;BME280;47927;42.646;23.096;2023-07-24T01:09:34;92446.69;;;19.28;55.39
61963;BME280;47927;42.646;23.096;2023-07-24T01:12:06;92440.31;;;19.25;55.75
61963;BME280;47927;42.646;23.096;2023-07-24T01:14:42;92442.03;;;19.16;55.64
61963;BME280;47927;42.646;23.096;2023-07-24T01:17:12;92435.69;;;19.09;55.83
61963;BME280;47927;42.646;23.096;2023-07-24T01:19:47;92436.56;;;19.03;55.96
61963;BME280;47927;42.646;23.096;2023-07-24T01:22:27;92437.00;;;19.01;55.87
61963;BME280;47927;42.646;23.096;2023-07-24T01:25:23;92437.28;;;19.07;55.94
61963;BME280;47927;42.646;23.096;2023-07-24T01:27:51;92446.59;;;18.92;56.16
61963;BME280;47927;42.646;23.096;2023-07-24T01:30:18;92438.50;;;18.79;56.45
61963;BME280;47927;42.646;23.096;2023-07-24T01:32:44;92440.97;;;18.66;56.84
61963;BME280;47927;42.646;23.096;2023-07-24T01:35:10;92445.03;;;18.74;56.85
61963;BME280;47927;42.646;23.096;2023-07-24T01:37:36;92442.88;;;18.89;56.16
61963;BME280;47927;42.646;23.096;2023-07-24T01:40:06;92437.91;;;18.91;56.47
61963;BME280;47927;42.646;23.096;2023-07-24T01:42:33;92445.53;;;18.89;56.50
61963;BME280;47927;42.646;23.096;2023-07-24T01:44:59;92434.47;;;18.94;56.71
61963;BME280;47927;42.646;23.096;2023-07-24T01:47:24;92432.63;;;18.91;56.84
61963;BME280;47927;42.646;23.096;2023-07-24T01:49:51;92445.91;;;18.87;56.46
61963;BME280;47927;42.646;23.096;2023-07-24T01:52:17;92443.69;;;18.86;56.55
61963;BME280;47927;42.646;23.096;2023-07-24T01:54:42;92449.22;;;18.92;56.15
61963;BME280;47927;42.646;23.096;2023-07-24T01:57:08;92448.75;;;18.97;55.59
61963;BME280;47927;42.646;23.096;2023-07-24T01:59:33;92446.75;;;19.04;55.79
61963;BME280;47927;42.646;23.096;2023-07-24T02:01:59;92449.59;;;19.13;55.35
61963;BME280;47927;42.646;23.096;2023-07-24T02:04:24;92449.31;;;19.08;55.59
61963;BME280;47927;42.646;23.096;2023-07-24T02:06:50;92450.88;;;19.05;55.64
61963;BME280;47927;42.646;23.096;2023-07-24T02:09:19;92452.03;;;19.04;55.44
61963;BME280;47927;42.646;23.096;2023-07-24T02:11:45;92434.44;;;18.98;55.46
61963;BME280;47927;42.646;23.096;2023-07-24T02:14:12;92437.75;;;19.02;55.94
61963;BME280;47927;42.646;23.096;2023-07-24T02:16:39;92434.34;;;19.01;56.11
61963;BME280;47927;42.646;23.096;2023-07-24T02:19:05;92427.25;;;18.98;55.73
61963;BME280;47927;42.646;23.096;2023-07-24T02:21:49;92437.34;;;18.80;56.08
61963;BME280;47927;42.646;23.096;2023-07-24T02:24:15;92439.66;;;18.54;56.71
61963;BME280;47927;42.646;23.096;2023-07-24T02:26:40;92438.06;;;18.37;57.44
61963;BME280;47927;42.646;23.096;2023-07-24T02:29:06;92434.03;;;18.52;56.94
61963;BME280;47927;42.646;23.096;2023-07-24T02:31:31;92436.44;;;18.66;56.84
61963;BME280;47927;42.646;23.096;2023-07-24T02:33:57;92433.34;;;18.72;56.46
61963;BME280;47927;42.646;23.096;2023-07-24T02:36:22;92431.56;;;18.65;56.46
61963;BME280;47927;42.646;23.096;2023-07-24T02:39:06;92437.25;;;18.63;56.36
61963;BME280;47927;42.646;23.096;2023-07-24T02:41:32;92436.56;;;18.59;56.59
61963;BME280;47927;42.646;23.096;2023-07-24T02:43:57;92442.16;;;18.38;57.49
61963;BME280;47927;42.646;23.096;2023-07-24T02:46:23;92436.06;;;18.44;57.31
61963;BME280;47927;42.646;23.096;2023-07-24T02:48:52;92423.59;;;18.45;57.28
61963;BME280;47927;42.646;23.096;2023-07-24T02:51:18;92426.19;;;18.49;57.12
61963;BME280;47927;42.646;23.096;2023-07-24T02:53:43;92424.63;;;18.51;56.62
61963;BME280;47927;42.646;23.096;2023-07-24T02:56:09;92425.88;;;18.43;56.75
61963;BME280;47927;42.646;23.096;2023-07-24T02:58:34;92425.78;;;18.27;57.46
61963;BME280;47927;42.646;23.096;2023-07-24T03:01:07;92420.25;;;18.41;57.09
61963;BME280;47927;42.646;23.096;2023-07-24T03:03:34;92425.88;;;18.43;57.01
61963;BME280;47927;42.646;23.096;2023-07-24T03:05:59;92427.84;;;18.39;57.01
61963;BME280;47927;42.646;23.096;2023-07-24T03:08:25;92425.53;;;18.41;57.02
61963;BME280;47927;42.646;23.096;2023-07-24T03:10:51;92432.19;;;18.49;56.93
61963;BME280;47927;42.646;23.096;2023-07-24T03:13:17;92417.25;;;18.42;57.12
61963;BME280;47927;42.646;23.096;2023-07-24T03:15:42;92423.59;;;18.45;56.96
61963;BME280;47927;42.646;23.096;2023-07-24T03:18:07;92421.78;;;18.42;57.09
61963;BME280;47927;42.646;23.096;2023-07-24T03:20:33;92418.78;;;18.40;57.02
61963;BME280;47927;42.646;23.096;2023-07-24T03:22:59;92408.66;;;18.38;57.13
61963;BME280;47927;42.646;23.096;2023-07-24T03:25:24;92414.31;;;18.37;56.98
61963;BME280;47927;42.646;23.096;2023-07-24T03:27:50;92418.50;;;18.34;57.30
61963;BME280;47927;42.646;23.096;2023-07-24T03:30:15;92412.34;;;18.41;57.23
61963;BME280;47927;42.646;23.096;2023-07-24T03:32:41;92410.94;;;18.36;57.07
61963;BME280;47927;42.646;23.096;2023-07-24T03:35:07;92419.06;;;18.22;57.25
61963;BME280;47927;42.646;23.096;2023-07-24T03:37:34;92415.78;;;18.38;57.36
61963;BME280;47927;42.646;23.096;2023-07-24T03:40:00;92411.84;;;18.50;56.84
61963;BME280;47927;42.646;23.096;2023-07-24T03:42:30;92420.84;;;18.76;56.63
61963;BME280;47927;42.646;23.096;2023-07-24T03:44:56;92413.34;;;18.71;56.78
61963;BME280;47927;42.646;23.096;2023-07-24T03:47:23;92417.47;;;18.75;56.52
61963;BME280;47927;42.646;23.096;2023-07-24T03:49:49;92434.16;;;18.92;56.54
61963;BME280;47927;42.646;23.096;2023-07-24T03:52:15;92427.47;;;19.07;56.27
61963;BME280;47927;42.646;23.096;2023-07-24T03:54:41;92423.47;;;19.19;55.83
61963;BME280;47927;42.646;23.096;2023-07-24T03:57:06;92401.16;;;19.20;56.01
61963;BME280;47927;42.646;23.096;2023-07-24T03:59:32;92427.25;;;19.38;55.98
61963;BME280;47927;42.646;23.096;2023-07-24T04:01:58;92435.34;;;19.47;55.63
61963;BME280;47927;42.646;23.096;2023-07-24T04:04:23;92438.75;;;19.68;55.40
61963;BME280;47927;42.646;23.096;2023-07-24T04:06:49;92447.31;;;19.92;55.11
61963;BME280;47927;42.646;23.096;2023-07-24T04:09:15;92448.41;;;20.27;54.15
61963;BME280;47927;42.646;23.096;2023-07-24T04:11:42;92441.38;;;20.69;53.57
61963;BME280;47927;42.646;23.096;2023-07-24T04:14:07;92427.97;;;21.06;52.89
61963;BME280;47927;42.646;23.096;2023-07-24T04:16:33;92425.91;;;21.55;51.96
61963;BME280;47927;42.646;23.096;2023-07-24T04:18:58;92433.28;;;21.90;51.21
61963;BME280;47927;42.646;23.096;2023-07-24T04:21:24;92433.06;;;22.48;49.22
61963;BME280;47927;42.646;23.096;2023-07-24T04:23:49;92434.44;;;23.44;47.63
61963;BME280;47927;42.646;23.096;2023-07-24T04:26:15;92436.09;;;24.44;43.99
61963;BME280;47927;42.646;23.096;2023-07-24T04:28:40;92435.81;;;25.80;42.14
61963;BME280;47927;42.646;23.096;2023-07-24T04:31:06;92444.09;;;26.91;39.68
61963;BME280;47927;42.646;23.096;2023-07-24T04:33:31;92444.06;;;28.13;37.24
61963;BME280;47927;42.646;23.096;2023-07-24T04:35:57;92445.41;;;28.53;35.79
61963;BME280;47927;42.646;23.096;2023-07-24T04:38:22;92450.38;;;29.42;33.58
61963;BME280;47927;42.646;23.096;2023-07-24T04:40:48;92459.66;;;29.67;33.01
61963;BME280;47927;42.646;23.096;2023-07-24T04:43:14;92458.28;;;29.78;33.10
61963;BME280;47927;42.646;23.096;2023-07-24T04:45:39;92458.84;;;30.19;32.33
61963;BME280;47927;42.646;23.096;2023-07-24T04:48:05;92461.47;;;30.77;31.20
61963;BME280;47927;42.646;23.096;2023-07-24T04:50:30;92453.94;;;31.46;30.29
61963;BME280;47927;42.646;23.096;2023-07-24T04:52:56;92451.66;;;31.28;29.40
61963;BME280;47927;42.646;23.096;2023-07-24T04:55:22;92454.22;;;30.94;29.66
61963;BME280;47927;42.646;23.096;2023-07-24T04:57:47;92450.16;;;30.30;30.33
61963;BME280;47927;42.646;23.096;2023-07-24T05:00:13;92451.03;;;29.84;32.20
61963;BME280;47927;42.646;23.096;2023-07-24T05:02:39;92453.69;;;29.58;33.08
61963;BME280;47927;42.646;23.096;2023-07-24T05:05:05;92451.94;;;29.55;33.08
61963;BME280;47927;42.646;23.096;2023-07-24T05:07:31;92452.56;;;29.44;31.62
61963;BME280;47927;42.646;23.096;2023-07-24T05:09:56;92451.84;;;29.43;32.29
61963;BME280;47927;42.646;23.096;2023-07-24T05:12:22;92455.28;;;29.70;30.24
61963;BME280;47927;42.646;23.096;2023-07-24T05:14:47;92461.97;;;29.80;32.08
61963;BME280;47927;42.646;23.096;2023-07-24T05:17:13;92457.91;;;30.54;31.16
61963;BME280;47927;42.646;23.096;2023-07-24T05:19:38;92456.75;;;29.97;32.47
61963;BME280;47927;42.646;23.096;2023-07-24T05:22:04;92458.81;;;30.82;31.77
61963;BME280;47927;42.646;23.096;2023-07-24T05:24:30;92458.44;;;32.22;28.35
61963;BME280;47927;42.646;23.096;2023-07-24T05:26:55;92473.97;;;34.14;26.42
61963;BME280;47927;42.646;23.096;2023-07-24T05:29:20;92452.63;;;36.09;24.01
61963;BME280;47927;42.646;23.096;2023-07-24T05:32:06;92463.91;;;37.85;21.88
61963;BME280;47927;42.646;23.096;2023-07-24T05:34:31;92471.81;;;39.38;20.08
61963;BME280;47927;42.646;23.096;2023-07-24T05:36:57;92468.81;;;40.39;18.17
61963;BME280;47927;42.646;23.096;2023-07-24T05:39:22;92473.13;;;41.27;18.35
61963;BME280;47927;42.646;23.096;2023-07-24T05:41:48;92470.72;;;42.19;16.33
61963;BME280;47927;42.646;23.096;2023-07-24T05:44:14;92476.81;;;42.85;16.31
61963;BME280;47927;42.646;23.096;2023-07-24T05:46:39;92475.78;;;43.50;14.94
61963;BME280;47927;42.646;23.096;2023-07-24T05:49:05;92471.44;;;44.46;13.93
61963;BME280;47927;42.646;23.096;2023-07-24T05:51:30;92471.94;;;44.71;14.27
61963;BME280;47927;42.646;23.096;2023-07-24T05:53:56;92471.25;;;44.34;14.50
61963;BME280;47927;42.646;23.096;2023-07-24T05:56:21;92474.16;;;44.83;14.08
61963;BME280;47927;42.646;23.096;2023-07-24T05:58:47;92473.00;;;44.86;14.11
61963;BME280;47927;42.646;23.096;2023-07-24T06:01:13;92467.53;;;45.05;13.44
61963;BME280;47927;42.646;23.096;2023-07-24T06:03:39;92464.50;;;45.11;13.70
61963;BME280;47927;42.646;23.096;2023-07-24T06:06:05;92466.69;;;45.70;13.41
61963;BME280;47927;42.646;23.096;2023-07-24T06:08:30;92471.50;;;46.21;13.24
61963;BME280;47927;42.646;23.096;2023-07-24T06:10:56;92472.47;;;47.19;12.14
61963;BME280;47927;42.646;23.096;2023-07-24T06:13:21;92471.91;;;47.54;11.99
61963;BME280;47927;42.646;23.096;2023-07-24T06:15:48;92480.06;;;47.52;11.70
61963;BME280;47927;42.646;23.096;2023-07-24T06:33:06;92467.66;;;47.74;11.64
61963;BME280;47927;42.646;23.096;2023-07-24T06:35:32;92469.25;;;47.77;11.78
61963;BME280;47927;42.646;23.096;2023-07-24T06:37:57;92471.00;;;47.61;11.11
61963;BME280;47927;42.646;23.096;2023-07-24T06:40:23;92470.41;;;47.74;11.40
61963;BME280;47927;42.646;23.096;2023-07-24T06:42:48;92470.84;;;47.59;11.04
61963;BME280;47927;42.646;23.096;2023-07-24T06:45:14;92470.31;;;48.29;11.19
61963;BME280;47927;42.646;23.096;2023-07-24T06:47:40;92470.34;;;48.76;11.04
61963;BME280;47927;42.646;23.096;2023-07-24T06:50:06;92478.69;;;49.13;11.20
61963;BME280;47927;42.646;23.096;2023-07-24T06:52:32;92467.84;;;49.17;10.73
61963;BME280;47927;42.646;23.096;2023-07-24T06:54:58;92476.75;;;49.53;9.91
61963;BME280;47927;42.646;23.096;2023-07-24T06:57:24;92475.31;;;49.52;10.01
61963;BME280;47927;42.646;23.096;2023-07-24T06:59:49;92479.34;;;48.88;10.89
61963;BME280;47927;42.646;23.096;2023-07-24T07:02:15;92478.47;;;49.46;10.63
61963;BME280;47927;42.646;23.096;2023-07-24T07:04:41;92476.97;;;49.69;10.75
61963;BME280;47927;42.646;23.096;2023-07-24T07:07:06;92477.63;;;49.81;10.21
61963;BME280;47927;42.646;23.096;2023-07-24T07:09:32;92477.31;;;49.89;9.67
61963;BME280;47927;42.646;23.096;2023-07-24T07:11:58;92482.81;;;50.01;9.90
61963;BME280;47927;42.646;23.096;2023-07-24T07:14:24;92474.94;;;49.95;10.05
61963;BME280;47927;42.646;23.096;2023-07-24T07:16:49;92478.13;;;49.78;10.64
61963;BME280;47927;42.646;23.096;2023-07-24T07:19:15;92469.72;;;50.01;10.59
61963;BME280;47927;42.646;23.096;2023-07-24T07:21:41;92464.13;;;50.41;9.77
61963;BME280;47927;42.646;23.096;2023-07-24T07:24:06;92464.50;;;50.21;9.96
61963;BME280;47927;42.646;23.096;2023-07-24T07:26:32;92448.63;;;50.35;10.63
61963;BME280;47927;42.646;23.096;2023-07-24T07:28:58;92456.47;;;50.67;9.68
61963;BME280;47927;42.646;23.096;2023-07-24T07:31:24;92462.28;;;50.45;10.68
61963;BME280;47927;42.646;23.096;2023-07-24T07:34:08;92456.84;;;49.94;9.86
61963;BME280;47927;42.646;23.096;2023-07-24T07:36:34;92471.41;;;48.82;10.69
61963;BME280;47927;42.646;23.096;2023-07-24T07:38:59;92459.16;;;48.86;10.81
61963;BME280;47927;42.646;23.096;2023-07-24T07:41:25;92460.28;;;49.18;10.02
61963;BME280;47927;42.646;23.096;2023-07-24T07:43:50;92460.69;;;48.18;11.41
61963;BME280;47927;42.646;23.096;2023-07-24T07:46:16;92460.78;;;47.97;10.89
61963;BME280;47927;42.646;23.096;2023-07-24T07:48:41;92461.50;;;48.09;10.72
61963;BME280;47927;42.646;23.096;2023-07-24T07:51:07;92464.53;;;47.68;11.50
61963;BME280;47927;42.646;23.096;2023-07-24T07:53:32;92464.03;;;45.92;13.53
61963;BME280;47927;42.646;23.096;2023-07-24T07:55:59;92470.53;;;47.00;11.62
61963;BME280;47927;42.646;23.096;2023-07-24T07:58:28;92464.66;;;47.70;11.40
61963;BME280;47927;42.646;23.096;2023-07-24T08:00:53;92470.94;;;47.82;12.07
61963;BME280;47927;42.646;23.096;2023-07-24T08:03:19;92464.72;;;47.48;12.02
61963;BME280;47927;42.646;23.096;2023-07-24T08:05:44;92462.53;;;47.47;10.95
61963;BME280;47927;42.646;23.096;2023-07-24T08:08:10;92461.41;;;46.45;11.54
61963;BME280;47927;42.646;23.096;2023-07-24T08:10:39;92454.28;;;46.51;11.63
61963;BME280;47927;42.646;23.096;2023-07-24T08:13:05;92444.50;;;44.91;12.55
61963;BME280;47927;42.646;23.096;2023-07-24T08:15:37;92448.75;;;45.50;13.36
61963;BME280;47927;42.646;23.096;2023-07-24T08:18:04;92444.94;;;44.87;13.74
61963;BME280;47927;42.646;23.096;2023-07-24T08:20:30;92445.22;;;44.91;13.33
61963;BME280;47927;42.646;23.096;2023-07-24T08:22:55;92432.06;;;46.59;11.48
61963;BME280;47927;42.646;23.096;2023-07-24T08:25:21;92434.63;;;46.67;10.87
61963;BME280;47927;42.646;23.096;2023-07-24T08:27:46;92440.47;;;47.47;10.33
61963;BME280;47927;42.646;23.096;2023-07-24T08:30:12;92437.19;;;47.72;10.76
61963;BME280;47927;42.646;23.096;2023-07-24T08:32:39;92432.50;;;47.08;10.75
61963;BME280;47927;42.646;23.096;2023-07-24T08:35:05;92426.16;;;46.96;10.57
61963;BME280;47927;42.646;23.096;2023-07-24T08:37:31;92430.94;;;45.61;11.03
61963;BME280;47927;42.646;23.096;2023-07-24T08:39:56;92424.47;;;46.38;11.27
61963;BME280;47927;42.646;23.096;2023-07-24T08:42:22;92431.38;;;46.80;10.62
61963;BME280;47927;42.646;23.096;2023-07-24T08:44:48;92425.78;;;46.37;12.03
61963;BME280;47927;42.646;23.096;2023-07-24T08:47:15;92417.91;;;45.13;11.86
61963;BME280;47927;42.646;23.096;2023-07-24T08:49:41;92423.22;;;44.25;12.52
61963;BME280;47927;42.646;23.096;2023-07-24T08:52:08;92432.03;;;44.24;13.89
61963;BME280;47927;42.646;23.096;2023-07-24T08:54:36;92432.44;;;44.57;13.51
61963;BME280;47927;42.646;23.096;2023-07-24T08:57:06;92430.53;;;44.13;13.11
61963;BME280;47927;42.646;23.096;2023-07-24T08:59:32;92427.94;;;44.15;13.17
61963;BME280;47927;42.646;23.096;2023-07-24T09:01:57;92428.16;;;45.02;11.17
61963;BME280;47927;42.646;23.096;2023-07-24T09:04:24;92419.06;;;45.48;13.38
61963;BME280;47927;42.646;23.096;2023-07-24T09:06:50;92422.31;;;45.86;10.79
61963;BME280;47927;42.646;23.096;2023-07-24T09:09:15;92410.09;;;45.58;10.94
61963;BME280;47927;42.646;23.096;2023-07-24T09:11:52;92423.97;;;45.31;11.36
61963;BME280;47927;42.646;23.096;2023-07-24T09:14:24;92422.19;;;45.74;11.00
61963;BME280;47927;42.646;23.096;2023-07-24T09:17:08;92417.75;;;45.40;11.12
61963;BME280;47927;42.646;23.096;2023-07-24T09:19:34;92417.53;;;45.86;11.24
61963;BME280;47927;42.646;23.096;2023-07-24T09:22:14;92408.69;;;45.98;10.70
61963;BME280;47927;42.646;23.096;2023-07-24T09:25:00;92403.91;;;45.98;12.00
61963;BME280;47927;42.646;23.096;2023-07-24T09:27:28;92407.50;;;46.63;10.31
61963;BME280;47927;42.646;23.096;2023-07-24T09:29:57;92404.22;;;46.24;11.03
61963;BME280;47927;42.646;23.096;2023-07-24T09:32:27;92398.22;;;46.06;10.01
61963;BME280;47927;42.646;23.096;2023-07-24T09:34:53;92392.00;;;46.05;11.38
61963;BME280;47927;42.646;23.096;2023-07-24T09:37:37;92392.84;;;45.57;12.10
61963;BME280;47927;42.646;23.096;2023-07-24T09:40:21;92388.81;;;45.29;14.07
61963;BME280;47927;42.646;23.096;2023-07-24T09:42:46;92377.78;;;44.61;13.37
61963;BME280;47927;42.646;23.096;2023-07-24T09:45:12;92390.34;;;44.54;14.20
61963;BME280;47927;42.646;23.096;2023-07-24T09:47:39;92386.00;;;44.61;13.25
61963;BME280;47927;42.646;23.096;2023-07-24T09:50:05;92390.09;;;43.86;14.83
61963;BME280;47927;42.646;23.096;2023-07-24T09:52:31;92399.28;;;43.99;14.04
61963;BME280;47927;42.646;23.096;2023-07-24T09:55:11;92383.97;;;43.24;13.47
61963;BME280;47927;42.646;23.096;2023-07-24T09:57:37;92370.38;;;42.56;15.41
61963;BME280;47927;42.646;23.096;2023-07-24T10:00:04;92383.72;;;42.95;13.98
61963;BME280;47927;42.646;23.096;2023-07-24T10:02:33;92379.69;;;43.58;14.76
61963;BME280;47927;42.646;23.096;2023-07-24T10:05:00;92374.22;;;43.85;15.27
61963;BME280;47927;42.646;23.096;2023-07-24T10:07:26;92369.44;;;43.85;15.85
61963;BME280;47927;42.646;23.096;2023-07-24T10:09:52;92376.31;;;44.04;14.95
61963;BME280;47927;42.646;23.096;2023-07-24T10:12:19;92373.50;;;43.40;15.41
61963;BME280;47927;42.646;23.096;2023-07-24T10:14:46;92370.38;;;43.43;15.95
61963;BME280;47927;42.646;23.096;2023-07-24T10:17:12;92366.97;;;43.80;15.72
61963;BME280;47927;42.646;23.096;2023-07-24T10:19:42;92369.97;;;43.74;15.46
61963;BME280;47927;42.646;23.096;2023-07-24T10:22:17;92345.84;;;42.49;16.37
61963;BME280;47927;42.646;23.096;2023-07-24T10:24:47;92359.31;;;41.79;18.21
61963;BME280;47927;42.646;23.096;2023-07-24T10:27:12;92360.06;;;41.80;16.61
61963;BME280;47927;42.646;23.096;2023-07-24T10:29:38;92350.00;;;42.07;16.50
61963;BME280;47927;42.646;23.096;2023-07-24T10:32:16;92349.63;;;41.86;16.99
61963;BME280;47927;42.646;23.096;2023-07-24T10:34:42;92349.56;;;41.69;17.59
61963;BME280;47927;42.646;23.096;2023-07-24T10:37:08;92349.53;;;41.36;17.14
61963;BME280;47927;42.646;23.096;2023-07-24T10:39:39;92345.72;;;41.31;17.51
61963;BME280;47927;42.646;23.096;2023-07-24T10:42:09;92345.00;;;41.31;17.83
61963;BME280;47927;42.646;23.096;2023-07-24T10:44:36;92341.22;;;41.26;18.89
61963;BME280;47927;42.646;23.096;2023-07-24T10:47:02;92330.56;;;40.97;17.80
61963;BME280;47927;42.646;23.096;2023-07-24T10:49:28;92344.81;;;40.81;18.28
61963;BME280;47927;42.646;23.096;2023-07-24T10:51:57;92332.72;;;41.07;18.51
61963;BME280;47927;42.646;23.096;2023-07-24T10:54:23;92337.41;;;40.66;18.51
61963;BME280;47927;42.646;23.096;2023-07-24T10:56:49;92328.31;;;40.55;18.83
61963;BME280;47927;42.646;23.096;2023-07-24T10:59:14;92329.56;;;40.54;18.54
61963;BME280;47927;42.646;23.096;2023-07-24T11:01:40;92331.09;;;40.02;19.78
61963;BME280;47927;42.646;23.096;2023-07-24T11:04:06;92323.06;;;40.04;18.59
61963;BME280;47927;42.646;23.096;2023-07-24T11:06:33;92324.59;;;39.23;20.67
61963;BME280;47927;42.646;23.096;2023-07-24T11:08:59;92322.16;;;39.63;19.53
61963;BME280;47927;42.646;23.096;2023-07-24T11:11:32;92319.09;;;40.20;18.38
61963;BME280;47927;42.646;23.096;2023-07-24T11:13:58;92311.22;;;40.47;18.42
61963;BME280;47927;42.646;23.096;2023-07-24T11:16:25;92297.03;;;40.41;18.71
61963;BME280;47927;42.646;23.096;2023-07-24T11:18:51;92312.72;;;40.25;19.12
61963;BME280;47927;42.646;23.096;2023-07-24T11:21:17;92313.28;;;39.93;20.57
61963;BME280;47927;42.646;23.096;2023-07-24T11:23:51;92306.53;;;40.02;19.42
61963;BME280;47927;42.646;23.096;2023-07-24T11:26:21;92300.66;;;39.44;18.92
61963;BME280;47927;42.646;23.096;2023-07-24T11:28:49;92295.03;;;39.34;20.01
61963;BME280;47927;42.646;23.096;2023-07-24T11:31:14;92298.50;;;39.50;20.58
61963;BME280;47927;42.646;23.096;2023-07-24T11:33:40;92295.94;;;39.37;19.75
61963;BME280;47927;42.646;23.096;2023-07-24T11:36:07;92295.03;;;39.34;20.86
61963;BME280;47927;42.646;23.096;2023-07-24T11:38:33;92283.69;;;38.63;20.96
61963;BME280;47927;42.646;23.096;2023-07-24T11:40:59;92296.72;;;38.57;22.06
61963;BME280;47927;42.646;23.096;2023-07-24T11:43:25;92282.75;;;38.24;20.98
61963;BME280;47927;42.646;23.096;2023-07-24T11:45:52;92291.44;;;38.51;20.87
61963;BME280;47927;42.646;23.096;2023-07-24T11:48:23;92279.53;;;38.70;20.44
61963;BME280;47927;42.646;23.096;2023-07-24T11:50:52;92276.22;;;38.92;20.80
61963;BME280;47927;42.646;23.096;2023-07-24T11:53:20;92271.19;;;39.12;19.34
61963;BME280;47927;42.646;23.096;2023-07-24T11:55:48;92275.97;;;39.42;19.99
61963;BME280;47927;42.646;23.096;2023-07-24T11:58:15;92268.34;;;39.56;19.52
61963;BME280;47927;42.646;23.096;2023-07-24T12:00:42;92266.47;;;38.68;19.98
61963;BME280;47927;42.646;23.096;2023-07-24T12:03:07;92280.19;;;38.47;19.97
61963;BME280;47927;42.646;23.096;2023-07-24T12:05:41;92275.91;;;38.02;21.06
61963;BME280;47927;42.646;23.096;2023-07-24T12:08:08;92274.44;;;38.01;21.93
61963;BME280;47927;42.646;23.096;2023-07-24T12:10:36;92273.91;;;38.32;20.51
61963;BME280;47927;42.646;23.096;2023-07-24T12:13:02;92266.69;;;38.05;21.15
61963;BME280;47927;42.646;23.096;2023-07-24T12:15:28;92271.88;;;37.75;21.63
61963;BME280;47927;42.646;23.096;2023-07-24T12:17:53;92266.84;;;37.79;23.01
61963;BME280;47927;42.646;23.096;2023-07-24T12:20:19;92265.09;;;37.89;21.76
61963;BME280;47927;42.646;23.096;2023-07-24T12:22:45;92263.22;;;37.55;21.98
61963;BME280;47927;42.646;23.096;2023-07-24T12:25:11;92258.56;;;37.84;22.61
61963;BME280;47927;42.646;23.096;2023-07-24T12:27:37;92255.53;;;38.17;20.88
61963;BME280;47927;42.646;23.096;2023-07-24T12:30:05;92250.03;;;38.09;19.78
61963;BME280;47927;42.646;23.096;2023-07-24T12:32:31;92255.97;;;38.36;21.02
61963;BME280;47927;42.646;23.096;2023-07-24T12:34:57;92247.50;;;38.11;19.18
61963;BME280;47927;42.646;23.096;2023-07-24T12:37:22;92252.59;;;38.15;19.89
61963;BME280;47927;42.646;23.096;2023-07-24T12:39:49;92248.19;;;37.54;18.30
61963;BME280;47927;42.646;23.096;2023-07-24T12:42:15;92242.16;;;37.48;20.13
61963;BME280;47927;42.646;23.096;2023-07-24T12:44:42;92239.09;;;37.52;19.21
61963;BME280;47927;42.646;23.096;2023-07-24T12:47:07;92238.97;;;37.86;21.79
61963;BME280;47927;42.646;23.096;2023-07-24T12:49:33;92233.78;;;37.46;18.14
61963;BME280;47927;42.646;23.096;2023-07-24T12:51:59;92240.31;;;37.72;16.95
61963;BME280;47927;42.646;23.096;2023-07-24T12:54:24;92229.19;;;37.41;16.06
61963;BME280;47927;42.646;23.096;2023-07-24T12:56:50;92233.56;;;37.65;17.04
61963;BME280;47927;42.646;23.096;2023-07-24T12:59:19;92233.50;;;37.78;16.76
61963;BME280;47927;42.646;23.096;2023-07-24T13:01:45;92245.75;;;37.72;16.70
61963;BME280;47927;42.646;23.096;2023-07-24T13:04:10;92235.84;;;37.53;16.07